sensor_id;sensor_type;location;lat;lon;timestamp;temperature;humidity
29353;DHT22;16344;50.364;8.944;2023-03-04T00:01:46;1.40;1.00
29353;DHT22;16344;50.364;8.944;2023-03-04T00:04:12;1.40;1.00
29353;DHT22;16344;50.364;8.944;2023-03-04T00:06:38;1.50;1.00
29353;DHT22;16344;50.364;8.944;2023-03-04T00:09:04;1.60;1.00
29353;DHT22;16344;50.364;8.944;2023-03-04T00:11:31;1.60;1.00
29353;DHT22;16344;50.364;8.944;2023-03-04T00:13:57;1.60;1.00
29353;DHT22;16344;50.364;8.944;2023-03-04T00:16:23;1.70;1.00
29353;DHT22;16344;50.364;8.944;2023-03-04T00:18:52;1.70;1.00
29353;DHT22;16344;50.364;8.944;2023-03-04T00:21:17;1.80;1.00
29353;DHT22;16344;50.364;8.944;2023-03-04T00:23:43;1.80;1.00
29353;DHT22;16344;50.364;8.944;2023-03-04T00:26:08;1.90;1.00
29353;DHT22;16344;50.364;8.944;2023-03-04T00:28:34;2.00;1.00
29353;DHT22;16344;50.364;8.944;2023-03-04T00:30:59;2.10;1.00
29353;DHT22;16344;50.364;8.944;2023-03-04T00:33:25;2.30;1.00
29353;DHT22;16344;50.364;8.944;2023-03-04T00:35:51;2.40;1.00
29353;DHT22;16344;50.364;8.944;2023-03-04T00:38:16;2.40;1.00
29353;DHT22;16344;50.364;8.944;2023-03-04T00:40:42;2.50;1.00
29353;DHT22;16344;50.364;8.944;2023-03-04T00:43:07;2.60;1.00
29353;DHT22;16344;50.364;8.944;2023-03-04T00:45:33;2.50;1.00
29353;DHT22;16344;50.364;8.944;2023-03-04T00:47:58;2.50;1.00
29353;DHT22;16344;50.364;8.944;2023-03-04T00:50:24;2.50;1.00
29353;DHT22;16344;50.364;8.944;2023-03-04T00:52:49;2.50;1.00
29353;DHT22;16344;50.364;8.944;2023-03-04T00:55:15;2.50;1.00
29353;DHT22;16344;50.364;8.944;2023-03-04T00:57:40;2.60;1.00
29353;DHT22;16344;50.364;8.944;2023-03-04T01:00:06;2.70;1.00
29353;DHT22;16344;50.364;8.944;2023-03-04T01:02:32;2.70;1.00
29353;DHT22;16344;50.364;8.944;2023-03-04T01:04:58;2.90;1.00
29353;DHT22;16344;50.364;8.944;2023-03-04T01:07:23;2.80;1.00
29353;DHT22;16344;50.364;8.944;2023-03-04T01:09:49;2.70;1.00
29353;DHT22;16344;50.364;8.944;2023-03-04T01:12:14;2.80;1.00
29353;DHT22;16344;50.364;8.944;2023-03-04T01:14:40;2.70;1.00
29353;DHT22;16344;50.364;8.944;2023-03-04T01:17:05;2.70;99.90
29353;DHT22;16344;50.364;8.944;2023-03-04T01:19:31;2.60;99.90
29353;DHT22;16344;50.364;8.944;2023-03-04T01:21:56;2.70;99.90
29353;DHT22;16344;50.364;8.944;2023-03-04T01:24:22;2.70;99.90
29353;DHT22;16344;50.364;8.944;2023-03-04T01:26:47;2.70;99.90
29353;DHT22;16344;50.364;8.944;2023-03-04T01:29:13;2.70;99.90
29353;DHT22;16344;50.364;8.944;2023-03-04T01:31:38;2.70;99.90
29353;DHT22;16344;50.364;8.944;2023-03-04T01:34:04;2.70;99.90
29353;DHT22;16344;50.364;8.944;2023-03-04T01:36:30;2.70;99.90
29353;DHT22;16344;50.364;8.944;2023-03-04T01:38:55;2.60;99.90
29353;DHT22;16344;50.364;8.944;2023-03-04T01:41:23;2.70;99.90
29353;DHT22;16344;50.364;8.944;2023-03-04T01:43:49;2.80;99.90
29353;DHT22;16344;50.364;8.944;2023-03-04T01:46:15;2.90;99.90
29353;DHT22;16344;50.364;8.944;2023-03-04T01:48:42;2.70;99.90
29353;DHT22;16344;50.364;8.944;2023-03-04T01:51:15;2.80;99.90
29353;DHT22;16344;50.364;8.944;2023-03-04T01:53:40;2.70;99.90
29353;DHT22;16344;50.364;8.944;2023-03-04T01:56:22;2.70;99.90
29353;DHT22;16344;50.364;8.944;2023-03-04T01:59:21;2.80;99.90
29353;DHT22;16344;50.364;8.944;2023-03-04T02:01:52;2.80;99.90
29353;DHT22;16344;50.364;8.944;2023-03-04T02:04:23;2.80;99.90
29353;DHT22;16344;50.364;8.944;2023-03-04T02:06:50;2.80;99.90
29353;DHT22;16344;50.364;8.944;2023-03-04T02:09:17;2.90;99.90
29353;DHT22;16344;50.364;8.944;2023-03-04T02:11:44;2.90;99.90
29353;DHT22;16344;50.364;8.944;2023-03-04T02:14:10;2.90;99.90
29353;DHT22;16344;50.364;8.944;2023-03-04T02:16:37;2.90;99.90
29353;DHT22;16344;50.364;8.944;2023-03-04T02:19:06;2.80;99.90
29353;DHT22;16344;50.364;8.944;2023-03-04T02:21:32;2.90;99.90
29353;DHT22;16344;50.364;8.944;2023-03-04T02:26:46;3.00;99.90
29353;DHT22;16344;50.364;8.944;2023-03-04T02:29:13;2.90;99.90
29353;DHT22;16344;50.364;8.944;2023-03-04T02:31:44;3.00;99.90
29353;DHT22;16344;50.364;8.944;2023-03-04T02:34:26;2.90;99.90
29353;DHT22;16344;50.364;8.944;2023-03-04T02:36:53;3.00;99.90
29353;DHT22;16344;50.364;8.944;2023-03-04T02:41:46;3.00;99.90
29353;DHT22;16344;50.364;8.944;2023-03-04T02:44:20;3.00;99.90
29353;DHT22;16344;50.364;8.944;2023-03-04T02:46:46;3.00;99.90
29353;DHT22;16344;50.364;8.944;2023-03-04T02:49:12;3.00;99.90
29353;DHT22;16344;50.364;8.944;2023-03-04T02:51:38;2.90;99.90
29353;DHT22;16344;50.364;8.944;2023-03-04T02:54:04;3.00;99.90
29353;DHT22;16344;50.364;8.944;2023-03-04T02:56:30;2.90;99.90
29353;DHT22;16344;50.364;8.944;2023-03-04T02:58:55;2.90;99.90
29353;DHT22;16344;50.364;8.944;2023-03-04T03:01:21;2.90;99.90
29353;DHT22;16344;50.364;8.944;2023-03-04T03:03:46;2.90;99.90
29353;DHT22;16344;50.364;8.944;2023-03-04T03:06:12;2.90;99.90
29353;DHT22;16344;50.364;8.944;2023-03-04T03:08:37;2.90;99.90
29353;DHT22;16344;50.364;8.944;2023-03-04T03:11:03;2.90;99.90
29353;DHT22;16344;50.364;8.944;2023-03-04T03:13:28;3.00;99.90
29353;DHT22;16344;50.364;8.944;2023-03-04T03:15:54;3.00;99.90
29353;DHT22;16344;50.364;8.944;2023-03-04T03:18:20;3.00;99.90
29353;DHT22;16344;50.364;8.944;2023-03-04T03:20:45;3.00;99.90
29353;DHT22;16344;50.364;8.944;2023-03-04T03:23:11;3.10;99.90
29353;DHT22;16344;50.364;8.944;2023-03-04T03:25:37;3.00;99.90
29353;DHT22;16344;50.364;8.944;2023-03-04T03:28:03;3.00;99.90
29353;DHT22;16344;50.364;8.944;2023-03-04T03:30:28;3.00;99.90
29353;DHT22;16344;50.364;8.944;2023-03-04T03:32:54;3.00;99.90
29353;DHT22;16344;50.364;8.944;2023-03-04T03:35:20;3.00;99.90
29353;DHT22;16344;50.364;8.944;2023-03-04T03:37:45;3.00;99.90
29353;DHT22;16344;50.364;8.944;2023-03-04T03:40:13;3.10;99.90
29353;DHT22;16344;50.364;8.944;2023-03-04T03:42:39;3.10;99.90
29353;DHT22;16344;50.364;8.944;2023-03-04T03:45:05;3.00;99.90
29353;DHT22;16344;50.364;8.944;2023-03-04T03:47:30;3.10;99.90
29353;DHT22;16344;50.364;8.944;2023-03-04T03:49:56;3.10;99.90
29353;DHT22;16344;50.364;8.944;2023-03-04T03:52:22;3.00;99.90
29353;DHT22;16344;50.364;8.944;2023-03-04T03:54:47;3.00;99.90
29353;DHT22;16344;50.364;8.944;2023-03-04T03:57:13;3.00;99.90
29353;DHT22;16344;50.364;8.944;2023-03-04T03:59:38;3.00;99.90
29353;DHT22;16344;50.364;8.944;2023-03-04T04:02:04;3.00;99.90
29353;DHT22;16344;50.364;8.944;2023-03-04T04:04:29;3.10;99.90
29353;DHT22;16344;50.364;8.944;2023-03-04T04:06:55;3.10;99.90
29353;DHT22;16344;50.364;8.944;2023-03-04T04:09:21;3.10;99.90
29353;DHT22;16344;50.364;8.944;2023-03-04T04:11:46;3.00;99.90
29353;DHT22;16344;50.364;8.944;2023-03-04T04:14:13;2.90;99.90
29353;DHT22;16344;50.364;8.944;2023-03-04T04:16:38;3.00;99.90
29353;DHT22;16344;50.364;8.944;2023-03-04T04:19:04;3.10;99.90
29353;DHT22;16344;50.364;8.944;2023-03-04T04:21:29;3.10;99.90
29353;DHT22;16344;50.364;8.944;2023-03-04T04:23:55;3.20;99.90
29353;DHT22;16344;50.364;8.944;2023-03-04T04:26:20;3.20;99.90
29353;DHT22;16344;50.364;8.944;2023-03-04T04:28:46;3.20;99.90
29353;DHT22;16344;50.364;8.944;2023-03-04T04:31:12;3.20;99.90
29353;DHT22;16344;50.364;8.944;2023-03-04T04:33:38;3.20;99.90
29353;DHT22;16344;50.364;8.944;2023-03-04T04:36:03;3.20;99.90
29353;DHT22;16344;50.364;8.944;2023-03-04T04:38:30;3.30;99.90
29353;DHT22;16344;50.364;8.944;2023-03-04T04:40:56;3.20;99.90
29353;DHT22;16344;50.364;8.944;2023-03-04T04:43:23;3.20;99.90
29353;DHT22;16344;50.364;8.944;2023-03-04T04:45:49;3.20;99.90
29353;DHT22;16344;50.364;8.944;2023-03-04T04:48:14;3.20;99.90
29353;DHT22;16344;50.364;8.944;2023-03-04T04:50:39;3.20;99.90
29353;DHT22;16344;50.364;8.944;2023-03-04T04:53:05;3.30;99.90
29353;DHT22;16344;50.364;8.944;2023-03-04T04:55:31;3.30;99.90
29353;DHT22;16344;50.364;8.944;2023-03-04T04:57:57;3.20;99.90
29353;DHT22;16344;50.364;8.944;2023-03-04T05:00:23;3.10;99.90
29353;DHT22;16344;50.364;8.944;2023-03-04T05:02:48;3.20;99.90
29353;DHT22;16344;50.364;8.944;2023-03-04T05:05:14;3.10;99.90
29353;DHT22;16344;50.364;8.944;2023-03-04T05:07:39;3.10;99.90
29353;DHT22;16344;50.364;8.944;2023-03-04T05:10:05;3.10;99.90
29353;DHT22;16344;50.364;8.944;2023-03-04T05:12:31;3.20;99.90
29353;DHT22;16344;50.364;8.944;2023-03-04T05:14:56;3.20;99.90
29353;DHT22;16344;50.364;8.944;2023-03-04T05:17:22;3.30;99.90
29353;DHT22;16344;50.364;8.944;2023-03-04T05:19:48;3.30;99.90
29353;DHT22;16344;50.364;8.944;2023-03-04T05:22:13;3.20;99.90
29353;DHT22;16344;50.364;8.944;2023-03-04T05:24:38;3.20;99.90
29353;DHT22;16344;50.364;8.944;2023-03-04T05:27:04;3.20;99.90
29353;DHT22;16344;50.364;8.944;2023-03-04T05:29:30;3.20;99.90
29353;DHT22;16344;50.364;8.944;2023-03-04T05:31:55;3.20;99.90
29353;DHT22;16344;50.364;8.944;2023-03-04T05:34:20;3.30;99.90
29353;DHT22;16344;50.364;8.944;2023-03-04T05:36:46;3.30;99.90
29353;DHT22;16344;50.364;8.944;2023-03-04T05:39:11;3.30;99.90
29353;DHT22;16344;50.364;8.944;2023-03-04T05:41:37;3.20;99.90
29353;DHT22;16344;50.364;8.944;2023-03-04T05:44:03;3.10;99.90
29353;DHT22;16344;50.364;8.944;2023-03-04T05:46:28;3.10;99.90
29353;DHT22;16344;50.364;8.944;2023-03-04T05:48:54;3.00;99.90
29353;DHT22;16344;50.364;8.944;2023-03-04T05:51:20;3.10;99.90
29353;DHT22;16344;50.364;8.944;2023-03-04T05:53:46;3.00;99.90
29353;DHT22;16344;50.364;8.944;2023-03-04T05:56:14;3.10;99.90
29353;DHT22;16344;50.364;8.944;2023-03-04T05:58:40;3.10;99.90
29353;DHT22;16344;50.364;8.944;2023-03-04T06:01:06;3.10;99.90
29353;DHT22;16344;50.364;8.944;2023-03-04T06:03:32;3.10;99.90
29353;DHT22;16344;50.364;8.944;2023-03-04T06:05:58;2.90;99.90
29353;DHT22;16344;50.364;8.944;2023-03-04T06:08:24;3.00;1.00
29353;DHT22;16344;50.364;8.944;2023-03-04T06:10:52;3.00;99.90
29353;DHT22;16344;50.364;8.944;2023-03-04T06:13:18;3.10;99.90
29353;DHT22;16344;50.364;8.944;2023-03-04T06:15:44;3.10;99.90
29353;DHT22;16344;50.364;8.944;2023-03-04T06:18:09;3.00;99.90
29353;DHT22;16344;50.364;8.944;2023-03-04T06:20:35;2.90;99.90
29353;DHT22;16344;50.364;8.944;2023-03-04T06:23:02;2.80;1.00
29353;DHT22;16344;50.364;8.944;2023-03-04T06:25:28;2.60;1.00
29353;DHT22;16344;50.364;8.944;2023-03-04T06:27:54;2.80;1.00
29353;DHT22;16344;50.364;8.944;2023-03-04T06:30:20;2.90;1.00
29353;DHT22;16344;50.364;8.944;2023-03-04T06:32:46;2.80;1.00
29353;DHT22;16344;50.364;8.944;2023-03-04T06:35:13;2.90;1.00
29353;DHT22;16344;50.364;8.944;2023-03-04T06:37:39;2.90;1.00
29353;DHT22;16344;50.364;8.944;2023-03-04T06:40:06;3.00;1.00
29353;DHT22;16344;50.364;8.944;2023-03-04T06:42:33;3.10;1.00
29353;DHT22;16344;50.364;8.944;2023-03-04T06:44:59;3.10;1.00
29353;DHT22;16344;50.364;8.944;2023-03-04T06:47:24;3.20;1.00
29353;DHT22;16344;50.364;8.944;2023-03-04T06:49:50;3.20;99.90
29353;DHT22;16344;50.364;8.944;2023-03-04T06:52:16;3.30;99.90
29353;DHT22;16344;50.364;8.944;2023-03-04T06:54:42;3.30;99.90
29353;DHT22;16344;50.364;8.944;2023-03-04T06:57:07;3.30;99.90
29353;DHT22;16344;50.364;8.944;2023-03-04T06:59:33;3.20;99.90
29353;DHT22;16344;50.364;8.944;2023-03-04T07:01:58;3.20;99.90
29353;DHT22;16344;50.364;8.944;2023-03-04T07:04:24;3.20;1.00
29353;DHT22;16344;50.364;8.944;2023-03-04T07:06:50;3.20;1.00
29353;DHT22;16344;50.364;8.944;2023-03-04T07:09:16;3.20;1.00
29353;DHT22;16344;50.364;8.944;2023-03-04T07:11:42;3.20;1.00
29353;DHT22;16344;50.364;8.944;2023-03-04T07:14:08;3.30;1.00
29353;DHT22;16344;50.364;8.944;2023-03-04T07:16:33;3.30;1.00
29353;DHT22;16344;50.364;8.944;2023-03-04T07:18:59;3.40;99.90
29353;DHT22;16344;50.364;8.944;2023-03-04T07:21:24;3.30;1.00
29353;DHT22;16344;50.364;8.944;2023-03-04T07:23:50;3.30;1.00
29353;DHT22;16344;50.364;8.944;2023-03-04T07:26:16;3.30;1.00
29353;DHT22;16344;50.364;8.944;2023-03-04T07:28:42;3.30;1.00
29353;DHT22;16344;50.364;8.944;2023-03-04T07:31:09;3.40;1.00
29353;DHT22;16344;50.364;8.944;2023-03-04T07:33:36;3.50;1.00
29353;DHT22;16344;50.364;8.944;2023-03-04T07:36:01;3.60;99.90
29353;DHT22;16344;50.364;8.944;2023-03-04T07:38:27;3.60;99.90
29353;DHT22;16344;50.364;8.944;2023-03-04T07:40:57;3.70;99.90
29353;DHT22;16344;50.364;8.944;2023-03-04T07:43:23;3.70;99.90
29353;DHT22;16344;50.364;8.944;2023-03-04T07:45:48;3.80;99.90
29353;DHT22;16344;50.364;8.944;2023-03-04T07:48:14;3.80;99.90
29353;DHT22;16344;50.364;8.944;2023-03-04T07:50:39;3.80;99.90
29353;DHT22;16344;50.364;8.944;2023-03-04T07:53:05;3.80;99.90
29353;DHT22;16344;50.364;8.944;2023-03-04T07:55:30;3.80;99.90
29353;DHT22;16344;50.364;8.944;2023-03-04T07:57:56;3.90;99.90
29353;DHT22;16344;50.364;8.944;2023-03-04T08:00:22;4.00;99.90
29353;DHT22;16344;50.364;8.944;2023-03-04T08:02:48;4.10;99.90
29353;DHT22;16344;50.364;8.944;2023-03-04T08:05:13;4.10;99.90
29353;DHT22;16344;50.364;8.944;2023-03-04T08:07:39;4.10;99.90
29353;DHT22;16344;50.364;8.944;2023-03-04T08:10:05;4.20;99.90
29353;DHT22;16344;50.364;8.944;2023-03-04T08:12:32;4.20;99.90
29353;DHT22;16344;50.364;8.944;2023-03-04T08:14:58;4.10;99.90
29353;DHT22;16344;50.364;8.944;2023-03-04T08:17:23;4.20;99.90
29353;DHT22;16344;50.364;8.944;2023-03-04T08:19:49;4.30;99.90
29353;DHT22;16344;50.364;8.944;2023-03-04T08:22:14;4.30;99.90
29353;DHT22;16344;50.364;8.944;2023-03-04T08:24:40;4.40;99.90
29353;DHT22;16344;50.364;8.944;2023-03-04T08:27:06;4.40;99.90
29353;DHT22;16344;50.364;8.944;2023-03-04T08:29:31;4.40;99.90
29353;DHT22;16344;50.364;8.944;2023-03-04T08:31:57;4.50;99.90
29353;DHT22;16344;50.364;8.944;2023-03-04T08:34:26;4.50;99.90
29353;DHT22;16344;50.364;8.944;2023-03-04T08:36:51;4.50;99.90
29353;DHT22;16344;50.364;8.944;2023-03-04T08:39:18;4.50;99.90
29353;DHT22;16344;50.364;8.944;2023-03-04T08:41:45;4.50;99.90
29353;DHT22;16344;50.364;8.944;2023-03-04T08:44:12;4.50;99.90
29353;DHT22;16344;50.364;8.944;2023-03-04T08:46:39;4.50;99.90
29353;DHT22;16344;50.364;8.944;2023-03-04T08:49:05;4.60;99.90
29353;DHT22;16344;50.364;8.944;2023-03-04T08:51:31;4.60;99.90
29353;DHT22;16344;50.364;8.944;2023-03-04T08:53:57;4.60;99.90
29353;DHT22;16344;50.364;8.944;2023-03-04T08:56:23;4.60;99.90
29353;DHT22;16344;50.364;8.944;2023-03-04T08:58:48;4.70;99.90
29353;DHT22;16344;50.364;8.944;2023-03-04T09:01:14;4.70;99.90
29353;DHT22;16344;50.364;8.944;2023-03-04T09:03:40;4.80;99.90
29353;DHT22;16344;50.364;8.944;2023-03-04T09:06:06;4.70;99.90
29353;DHT22;16344;50.364;8.944;2023-03-04T09:08:33;4.80;99.90
29353;DHT22;16344;50.364;8.944;2023-03-04T09:10:59;4.90;99.90
29353;DHT22;16344;50.364;8.944;2023-03-04T09:13:27;4.80;99.90
29353;DHT22;16344;50.364;8.944;2023-03-04T09:15:53;4.90;99.90
29353;DHT22;16344;50.364;8.944;2023-03-04T09:18:20;4.90;99.90
29353;DHT22;16344;50.364;8.944;2023-03-04T09:20:46;4.90;99.90
29353;DHT22;16344;50.364;8.944;2023-03-04T09:23:12;5.00;99.90
29353;DHT22;16344;50.364;8.944;2023-03-04T09:25:39;5.00;99.90
29353;DHT22;16344;50.364;8.944;2023-03-04T09:28:05;5.10;99.90
29353;DHT22;16344;50.364;8.944;2023-03-04T09:30:32;5.10;99.90
29353;DHT22;16344;50.364;8.944;2023-03-04T09:32:57;5.00;99.90
29353;DHT22;16344;50.364;8.944;2023-03-04T09:35:23;5.10;99.90
29353;DHT22;16344;50.364;8.944;2023-03-04T09:37:49;5.20;99.90
29353;DHT22;16344;50.364;8.944;2023-03-04T09:40:20;5.20;99.90
29353;DHT22;16344;50.364;8.944;2023-03-04T09:42:51;5.20;99.90
29353;DHT22;16344;50.364;8.944;2023-03-04T09:45:21;5.20;99.90
29353;DHT22;16344;50.364;8.944;2023-03-04T09:47:49;5.20;99.90
29353;DHT22;16344;50.364;8.944;2023-03-04T09:50:17;5.20;99.90
29353;DHT22;16344;50.364;8.944;2023-03-04T09:52:54;5.40;99.90
29353;DHT22;16344;50.364;8.944;2023-03-04T09:55:43;5.50;99.90
29353;DHT22;16344;50.364;8.944;2023-03-04T09:58:15;5.50;99.90
29353;DHT22;16344;50.364;8.944;2023-03-04T10:01:03;5.50;99.90
29353;DHT22;16344;50.364;8.944;2023-03-04T10:03:46;5.60;99.90
29353;DHT22;16344;50.364;8.944;2023-03-04T10:06:19;5.60;99.90
29353;DHT22;16344;50.364;8.944;2023-03-04T10:09:09;5.60;99.90
29353;DHT22;16344;50.364;8.944;2023-03-04T10:11:45;5.60;99.90
29353;DHT22;16344;50.364;8.944;2023-03-04T10:14:20;5.60;99.90
29353;DHT22;16344;50.364;8.944;2023-03-04T10:17:11;5.70;99.90
29353;DHT22;16344;50.364;8.944;2023-03-04T10:20:04;5.70;99.90
29353;DHT22;16344;50.364;8.944;2023-03-04T10:22:34;5.60;99.90
29353;DHT22;16344;50.364;8.944;2023-03-04T10:25:30;5.60;99.90
29353;DHT22;16344;50.364;8.944;2023-03-04T10:28:03;5.80;99.90
29353;DHT22;16344;50.364;8.944;2023-03-04T10:30:56;5.80;99.90
29353;DHT22;16344;50.364;8.944;2023-03-04T10:33:26;5.90;99.90
29353;DHT22;16344;50.364;8.944;2023-03-04T10:38:35;6.00;69.40
29353;DHT22;16344;50.364;8.944;2023-03-04T10:41:11;6.10;78.10
29353;DHT22;16344;50.364;8.944;2023-03-04T10:43:37;6.10;38.20
29353;DHT22;16344;50.364;8.944;2023-03-04T10:46:03;6.10;51.60
29353;DHT22;16344;50.364;8.944;2023-03-04T10:48:30;6.10;57.70
29353;DHT22;16344;50.364;8.944;2023-03-04T10:51:22;6.20;31.60
29353;DHT22;16344;50.364;8.944;2023-03-04T10:54:06;6.20;8.70
29353;DHT22;16344;50.364;8.944;2023-03-04T10:56:34;6.20;29.00
29353;DHT22;16344;50.364;8.944;2023-03-04T10:59:29;6.10;6.90
29353;DHT22;16344;50.364;8.944;2023-03-04T11:02:00;6.10;51.00
29353;DHT22;16344;50.364;8.944;2023-03-04T11:04:31;6.20;29.50
29353;DHT22;16344;50.364;8.944;2023-03-04T11:06:57;6.30;17.80
29353;DHT22;16344;50.364;8.944;2023-03-04T11:09:24;6.30;7.00
29353;DHT22;16344;50.364;8.944;2023-03-04T11:11:51;6.30;1.50
29353;DHT22;16344;50.364;8.944;2023-03-04T11:14:25;6.40;7.10
29353;DHT22;16344;50.364;8.944;2023-03-04T11:16:59;6.50;4.40
29353;DHT22;16344;50.364;8.944;2023-03-04T11:19:34;6.60;1.00
29353;DHT22;16344;50.364;8.944;2023-03-04T11:22:02;6.70;1.00
29353;DHT22;16344;50.364;8.944;2023-03-04T11:24:29;6.80;1.00
29353;DHT22;16344;50.364;8.944;2023-03-04T11:27:12;6.90;1.00
29353;DHT22;16344;50.364;8.944;2023-03-04T11:32:17;7.00;1.00
29353;DHT22;16344;50.364;8.944;2023-03-04T11:34:53;7.10;1.00
29353;DHT22;16344;50.364;8.944;2023-03-04T11:37:34;7.30;1.00
29353;DHT22;16344;50.364;8.944;2023-03-04T11:40:15;7.30;1.00
29353;DHT22;16344;50.364;8.944;2023-03-04T11:42:56;7.30;1.00
29353;DHT22;16344;50.364;8.944;2023-03-04T11:45:30;7.20;1.00
29353;DHT22;16344;50.364;8.944;2023-03-04T11:51:06;7.10;1.00
29353;DHT22;16344;50.364;8.944;2023-03-04T11:56:42;7.20;1.00
29353;DHT22;16344;50.364;8.944;2023-03-04T12:02:12;7.30;1.00
29353;DHT22;16344;50.364;8.944;2023-03-04T12:04:51;7.20;1.00
29353;DHT22;16344;50.364;8.944;2023-03-04T12:10:14;7.40;1.00
29353;DHT22;16344;50.364;8.944;2023-03-04T12:12:57;7.50;1.00
29353;DHT22;16344;50.364;8.944;2023-03-04T12:18:46;7.70;1.00
29353;DHT22;16344;50.364;8.944;2023-03-04T12:27:35;7.90;1.00
29353;DHT22;16344;50.364;8.944;2023-03-04T12:30:39;7.90;1.00
29353;DHT22;16344;50.364;8.944;2023-03-04T12:33:15;8.00;1.00
29353;DHT22;16344;50.364;8.944;2023-03-04T12:38:49;8.00;1.00
29353;DHT22;16344;50.364;8.944;2023-03-04T12:47:20;7.90;1.00
29353;DHT22;16344;50.364;8.944;2023-03-04T12:52:35;7.90;1.00
29353;DHT22;16344;50.364;8.944;2023-03-04T12:55:13;7.80;1.00
29353;DHT22;16344;50.364;8.944;2023-03-04T12:57:40;7.90;1.00
29353;DHT22;16344;50.364;8.944;2023-03-04T13:03:02;7.90;1.00
29353;DHT22;16344;50.364;8.944;2023-03-04T13:08:38;8.10;1.00
29353;DHT22;16344;50.364;8.944;2023-03-04T13:14:22;8.20;1.00
29353;DHT22;16344;50.364;8.944;2023-03-04T13:16:50;8.20;1.00
29353;DHT22;16344;50.364;8.944;2023-03-04T13:28:14;8.20;1.00
29353;DHT22;16344;50.364;8.944;2023-03-04T13:43:41;8.20;1.00
29353;DHT22;16344;50.364;8.944;2023-03-04T13:51:36;8.10;1.00
29353;DHT22;16344;50.364;8.944;2023-03-04T13:54:28;8.10;1.00
29353;DHT22;16344;50.364;8.944;2023-03-04T14:02:17;8.10;1.00
29353;DHT22;16344;50.364;8.944;2023-03-04T14:07:32;8.10;1.00
29353;DHT22;16344;50.364;8.944;2023-03-04T14:10:17;8.10;1.00
29353;DHT22;16344;50.364;8.944;2023-03-04T14:12:50;8.10;1.00
29353;DHT22;16344;50.364;8.944;2023-03-04T14:17:48;8.20;1.00
29353;DHT22;16344;50.364;8.944;2023-03-04T14:22:56;8.10;1.00
29353;DHT22;16344;50.364;8.944;2023-03-04T14:25:31;8.20;1.00
29353;DHT22;16344;50.364;8.944;2023-03-04T14:30:29;8.10;1.00
29353;DHT22;16344;50.364;8.944;2023-03-04T14:32:57;8.10;1.00
29353;DHT22;16344;50.364;8.944;2023-03-04T14:35:28;8.00;1.00
29353;DHT22;16344;50.364;8.944;2023-03-04T14:38:20;8.00;1.00
29353;DHT22;16344;50.364;8.944;2023-03-04T14:40:51;8.00;1.00
29353;DHT22;16344;50.364;8.944;2023-03-04T14:43:19;7.90;1.00
29353;DHT22;16344;50.364;8.944;2023-03-04T14:45:50;7.90;1.00
29353;DHT22;16344;50.364;8.944;2023-03-04T14:48:32;7.90;1.00
29353;DHT22;16344;50.364;8.944;2023-03-04T14:50:59;7.90;1.00
29353;DHT22;16344;50.364;8.944;2023-03-04T14:53:30;7.90;1.00
29353;DHT22;16344;50.364;8.944;2023-03-04T14:56:05;8.00;1.00
29353;DHT22;16344;50.364;8.944;2023-03-04T14:58:33;8.00;1.00
29353;DHT22;16344;50.364;8.944;2023-03-04T15:01:21;8.00;1.00
29353;DHT22;16344;50.364;8.944;2023-03-04T15:06:19;7.90;1.00
29353;DHT22;16344;50.364;8.944;2023-03-04T15:08:46;8.00;1.00
29353;DHT22;16344;50.364;8.944;2023-03-04T15:11:22;7.90;1.00
29353;DHT22;16344;50.364;8.944;2023-03-04T15:13:51;7.90;1.00
29353;DHT22;16344;50.364;8.944;2023-03-04T15:16:20;7.90;1.00
29353;DHT22;16344;50.364;8.944;2023-03-04T15:19:01;7.90;1.00
29353;DHT22;16344;50.364;8.944;2023-03-04T15:21:38;7.90;1.00
29353;DHT22;16344;50.364;8.944;2023-03-04T15:24:08;7.90;1.00
29353;DHT22;16344;50.364;8.944;2023-03-04T15:26:40;8.00;1.00
29353;DHT22;16344;50.364;8.944;2023-03-04T15:29:14;8.00;1.00
29353;DHT22;16344;50.364;8.944;2023-03-04T15:31:41;8.00;1.00
29353;DHT22;16344;50.364;8.944;2023-03-04T15:34:12;7.80;1.00
29353;DHT22;16344;50.364;8.944;2023-03-04T15:36:38;7.70;1.00
29353;DHT22;16344;50.364;8.944;2023-03-04T15:39:04;7.60;1.00
29353;DHT22;16344;50.364;8.944;2023-03-04T15:41:29;7.60;1.00
29353;DHT22;16344;50.364;8.944;2023-03-04T15:43:55;7.60;1.00
29353;DHT22;16344;50.364;8.944;2023-03-04T15:46:21;7.60;1.00
29353;DHT22;16344;50.364;8.944;2023-03-04T15:48:47;7.50;1.00
29353;DHT22;16344;50.364;8.944;2023-03-04T15:51:16;7.40;1.00
29353;DHT22;16344;50.364;8.944;2023-03-04T15:53:47;7.40;1.00
29353;DHT22;16344;50.364;8.944;2023-03-04T15:56:27;7.40;2.00
29353;DHT22;16344;50.364;8.944;2023-03-04T15:58:55;7.40;1.80
29353;DHT22;16344;50.364;8.944;2023-03-04T16:01:22;7.40;2.80
29353;DHT22;16344;50.364;8.944;2023-03-04T16:03:49;7.50;2.00
29353;DHT22;16344;50.364;8.944;2023-03-04T16:06:16;7.60;1.00
29353;DHT22;16344;50.364;8.944;2023-03-04T16:08:46;7.60;1.00
29353;DHT22;16344;50.364;8.944;2023-03-04T16:11:23;7.60;1.00
29353;DHT22;16344;50.364;8.944;2023-03-04T16:13:49;7.60;1.00
29353;DHT22;16344;50.364;8.944;2023-03-04T16:16:16;7.60;1.00
29353;DHT22;16344;50.364;8.944;2023-03-04T16:18:41;7.50;9.10
29353;DHT22;16344;50.364;8.944;2023-03-04T16:21:12;7.50;23.30
29353;DHT22;16344;50.364;8.944;2023-03-04T16:23:40;7.40;26.20
29353;DHT22;16344;50.364;8.944;2023-03-04T16:26:11;7.40;27.60
29353;DHT22;16344;50.364;8.944;2023-03-04T16:28:37;7.40;28.20
29353;DHT22;16344;50.364;8.944;2023-03-04T16:31:03;7.40;47.20
29353;DHT22;16344;50.364;8.944;2023-03-04T16:33:28;7.40;51.30
29353;DHT22;16344;50.364;8.944;2023-03-04T16:35:54;7.30;67.00
29353;DHT22;16344;50.364;8.944;2023-03-04T16:38:23;7.20;72.80
29353;DHT22;16344;50.364;8.944;2023-03-04T16:40:50;7.20;81.40
29353;DHT22;16344;50.364;8.944;2023-03-04T16:43:16;7.30;90.20
29353;DHT22;16344;50.364;8.944;2023-03-04T16:45:41;7.30;89.50
29353;DHT22;16344;50.364;8.944;2023-03-04T16:48:07;7.20;93.70
29353;DHT22;16344;50.364;8.944;2023-03-04T16:50:34;7.20;99.00
29353;DHT22;16344;50.364;8.944;2023-03-04T16:53:00;7.30;97.20
29353;DHT22;16344;50.364;8.944;2023-03-04T16:55:27;7.20;97.30
29353;DHT22;16344;50.364;8.944;2023-03-04T16:57:55;7.20;99.90
29353;DHT22;16344;50.364;8.944;2023-03-04T17:00:23;7.20;99.90
29353;DHT22;16344;50.364;8.944;2023-03-04T17:02:59;7.30;99.90
29353;DHT22;16344;50.364;8.944;2023-03-04T17:05:28;7.30;99.90
29353;DHT22;16344;50.364;8.944;2023-03-04T17:07:54;7.20;99.90
29353;DHT22;16344;50.364;8.944;2023-03-04T17:10:20;7.10;99.90
29353;DHT22;16344;50.364;8.944;2023-03-04T17:12:47;7.00;99.90
29353;DHT22;16344;50.364;8.944;2023-03-04T17:15:14;7.00;99.90
29353;DHT22;16344;50.364;8.944;2023-03-04T17:17:40;7.10;99.90
29353;DHT22;16344;50.364;8.944;2023-03-04T17:20:08;7.10;99.90
29353;DHT22;16344;50.364;8.944;2023-03-04T17:22:35;7.10;99.90
29353;DHT22;16344;50.364;8.944;2023-03-04T17:25:01;7.00;99.90
29353;DHT22;16344;50.364;8.944;2023-03-04T17:27:29;7.10;99.90
29353;DHT22;16344;50.364;8.944;2023-03-04T17:29:55;7.00;99.90
29353;DHT22;16344;50.364;8.944;2023-03-04T17:32:21;6.90;99.90
29353;DHT22;16344;50.364;8.944;2023-03-04T17:34:47;6.90;99.90
29353;DHT22;16344;50.364;8.944;2023-03-04T17:37:13;6.80;99.90
29353;DHT22;16344;50.364;8.944;2023-03-04T17:39:38;6.80;99.90